Buffalo, WY

9:24 PM MDT on October 21, 2014 (GMT -0600)
Esponda Ranch | Change Station
CLOSE
Current Station
Personal Weather Station
Location: Buffalo, WY
Elevation: 4665 ft
Nearby Weather Stations

Elev 4665 ft 44.32 °N, 106.67 °W | Updated 8 minutes ago

Clear
Clear
56.5 °F
Feels Like 56.5 °F
N
3.0
Wind Variable Wind from SW
Gusts 5.0 mph

Today
High -- | Low -- °F
--% Chance of Precip.
Yesterday
High -- | Low -- °F
Precip. -- in
7:29 AM 6:12 PM
Waning Crescent, 3% visible
Pressure 29.67 in
Visibility 10.0 miles
Clouds Clear
Dew Point 33 °F
Humidity 41%
Rainfall 0.00 in
Snow Depth Not available.
UV 0 out of 12
Pollen 2.30 out of 12
Air Quality Not available.
Flu Activity Sporadic
METAR KBYG 220253Z AUTO 25011KT 10SM CLR 18/M04 A2982 RMK AO2 PK WND 25030/0217 SLP046 T01781039 51016

More Conditions Fewer Conditions

Pressure 29.67 in
Visibility 10.0 miles
Clouds Clear
Dew Point 33 °F
Humidity 41%
Rainfall 0.00 in
Snow Depth Not available.
UV 0 out of 12
Pollen 2.30 out of 12
Air Quality Not available.
Flu Activity Sporadic
METAR KBYG 220253Z AUTO 25011KT 10SM CLR 18/M04 A2982 RMK AO2 PK WND 25030/0217 SLP046 T01781039 51016

More Conditions Fewer Conditions

10-Day Weather Forecast

Almanac

Astronomy

Oct. 21, 2014 Rise Set
Actual Time 7:29 AM MDT 6:12 PM MDT
Civil Twilight 7:00 AM MDT 6:42 PM MDT
Nautical Twilight 6:26 AM MDT 7:15 PM MDT
Astronomical Twilight 5:52 AM MDT 7:49 PM MDT
Moon 5:11 AM MDT (10/21) 5:11 PM MDT (10/21)
Length of Visible Light 11h 42m
Length of Day
10h 43m
Tomorrow will be 2m 54s shorter.
Waning Crescent, 3% of the Moon is Illuminated
Today
Waning Crescent
Oct 23
New
Oct 30
First Quarter
Nov 6
Full
Nov 14
Last Quarter

Today's Extremes

State Highs State Lows

Community

WunderPhotos

Upload Photos

1,763,874 photos uploaded!

Nearby

Snow Depth

Station Depth Elevation
Reno Hill 0 in 8500 ft
Laprele Creek 0 in 8375 ft
Windy Peak 0 in 7900 ft
Sylvan Lake 0 in 8420 ft
Togwotee Pass 0 in 7980 ft

Earthquake Activity

City Distance Mag. Time & Date
No recent earthquake activity has been reported nearby.
Minimum magnitude displayed is 2.5.

Coastal Water Temperatures

Place Temperature
No Stations Reporting

Nearby Weather Stations